Fedex MD10 at Indianapolis on Jul 1st 2021, runway excursion on landing

Last Update: July 2, 2021 / 17:30:41 GMT/Zulu time

Bookmark this article
Incident Facts

Date of incident
Jun 30, 2021

Classification
Accident

Airline
Fedex

Flight number
FX-1601

Aircraft Registration
N313FE

ICAO Type Designator
MD10

Airport ICAO Code
KIND

A Fedex Federal Express McDonnell Douglas MD-10 freighter, registration N313FE performing flight FX-1601 (dep Jun 30th) from Dallas Ft. Worth,TX to Indianapolis,IN (USA), landed on Indianapolis' runway 32 at 01:47L (05:47Z), vacated the runway and taxied to the apron. The crew advised there had been heavy rain on final approach and landing. Tower cleared the next arrivals for landing on runway 32.

On Jul 2nd 2021 the FAA reported: "AIRCRAFT LANDED AND VEERED OFF RUNWAY AND A FLAP WAS DISCOVERED ON THE RUNWAY AS WELL AS MISSING PAVEMENT, INDIANAPOLIS, IN."

The occurrence aircraft is still on the ground in Indianapolis about 35.5 hours after landing.



Related NOTAMs:
!IND 07/006 IND RWY 32 ALS U/S 2107010918-2107022000EST
!IND 07/003 IND RWY 14/32 CLSD 2107010700-2107012000
!IND 07/004 IND NAV ILS RWY 32 U/S 2107010909-2107022000EST
!IND 07/005 IND RWY 32 PAPI U/S 2107010915-2107022000EST

Metars:
KIND 010654Z 29007KT 5SM -TSRA BR SCT007 BKN016CB BKN080 OVC130 21/20 A3000 RMK AO2 PK WND 25033/0608 LTG DSNT NW-E SLP153 OCNL LTGICCC OHD TS OHD MOV E P0157 T02060200=
KIND 010641Z 29008KT 3SM -TSRA BR SCT007 BKN016CB BKN080 OVC130 21/21 A3001 RMK AO2 PK WND 25033/0608 LTG DSNT NE AND E OCNL LTGICCC OHD TS OHD MOV E P0151 T02110206=
KIND 010631Z 30009KT 3SM -TSRA BR BKN007 OVC013CB 21/21 A3001 RMK AO2 PK WND 25033/0608 LTG DSNT E AND SE AND NW FRQ LTGICCC OHD TS OHD MOV E P0146 T02110206=
KIND 010612Z 27022G33KT 2SM R05L/5500VP6000FT +TSRA BR BKN007 OVC013CB 21/21 A3001 RMK AO2 PK WND 25033/0608 LTG DSNT SE FRQ LTGICCC OHD TS OHD MOV E P0079 T02110206=
KIND 010554Z 22013G17KT 3/4SM R05L/2800V5000FT +TSRA BR BKN007 OVC013CB 23/22 A3001 RMK AO2 LTG DSNT W TSB21 SLP157 OCNL LTGICCC OHD TS OHD MOV E P0040 60042 T02280217 10239 20217 55007=
KIND 010544Z 25005KT 1 3/4SM R05L/4500VP6000FT +TSRA BR BKN009 BKN055CB OVC060 23/23 A3000 RMK AO2 LTG DSNT SW AND W TSB21 OCNL LTGICCC OHD TS OHD MOV E P0004 T02330228=
KIND 010539Z 23004KT 3SM -TSRA BR BKN009 BKN055CB OVC060 23/23 A3000 RMK AO2 LTG DSNT SW AND W TSB21 OCNL LTGICCC OHD TS OHD MOV E P0003 T02330228=
KIND 010527Z 24003KT 8SM -TSRA SCT014 BKN065CB OVC090 23/23 A3000 RMK AO2 LTG DSNT SW AND W TSB21 OCNL LTGICCC OHD TS OHD MOV E P0001 T02330228=
KIND 010514Z 00000KT 7SM -RA SCT019 BKN065 OVC090 23/23 A3000 RMK AO2 LTG DSNT SW AND W OCNL LTGICCC DSNT SW CB DSNT SW MOV E P0000 T02330228=
KIND 010454Z 28003KT 7SM -RA BKN015 BKN075 OVC100 23/23 A3001 RMK AO2 LTG DSNT NE AND E AND SW RAB52 SLP156 P0000 T02330228 402610211=
KIND 010447Z 25003KT 9SM BKN013 BKN070 OVC110 23/23 A3001 RMK AO2 LTG DSNT NE AND E T02330228=
KIND 010354Z 00000KT 10SM FEW015 FEW075 BKN110 OVC200 23/22 A3002 RMK AO2 TSE21 SLP160 OCNL LTGICCC DSNT N CB DSNT N MOV E T02330222=
KIND 010342Z 00000KT 10SM FEW015 FEW075 BKN110 OVC200 23/23 A3003 RMK AO2 TSE21 OCNL LTGICCC DSNT N CB DSNT N MOV E T02330228=
KIND 010327Z 21003KT 10SM VCTS SCT015 BKN100 OVC200 23/22 A3003 RMK AO2 TSE21 OCNL LTGICCC DSNT N CB DSNT N MOV E T02330222=
KIND 010309Z 25003KT 10SM BKN015 OVC085 23/22 A3003 RMK AO2 T02330222=
KIND 010254Z 00000KT 10SM FEW015 BKN080 OVC130 23/22 A3003 RMK AO2 SLP163 60002 T02330222 56005=
KIND 010154Z 26003KT 10SM FEW030 BKN150 OVC250 23/21 A3003 RMK AO2 SLP164 T02280211=
KIND 010054Z 33003KT 10SM FEW018 FEW050 BKN100 OVC250 22/21 A3003 RMK AO2 RAE46 SLP165 P0002 T02220206=
Aircraft Registration Data
Registration mark
N313FE
Country of Registration
United States
Date of Registration
Manufacturer
MCDONNELL DOUGLAS
Aircraft Model / Type
MD-10-30F
Number of Seats
ICAO Aircraft Type
MD10
Year of Manufacture
Serial Number
Aircraft Address / Mode S Code (HEX)
Engine Count
Engine Manufacturer
Engine Model
Engine Type
Pounds of Thrust
Main Owner
Admfgnd khifdeqp icbmdekAbjepkjijcenqlgkehbd dekemAepm jfejqbilbekpni leb Subscribe to unlock
Incident Facts

Date of incident
Jun 30, 2021

Classification
Accident

Airline
Fedex

Flight number
FX-1601

Aircraft Registration
N313FE

ICAO Type Designator
MD10

Airport ICAO Code
KIND

This article is published under license from Avherald.com. © of text by Avherald.com.
Article source

You can read 4 more free articles without a subscription.

Subscribe now and continue reading without any limits!

Are you a subscriber?
Login
Subscribe

Read unlimited articles and receive our daily update briefing. Gain better insights into what is happening in commercial aviation safety.

Free newsletter

Want to know more and stay ahead? Get our free weekly newsletter and join 5152 existing subscribers.

By subscribing, you accept our terms and conditions and confirm that you've read our privacy policy.

Send tip

Support AeroInside by sending a small tip amount.

Related articles

Newest articles

Subscribe today

Are you researching aviation incidents? Get access to AeroInside Insights, unlimited read access and receive the daily newsletter.

Pick your plan and subscribe

Partner

Blockaviation logo

A new way to document and demonstrate airworthiness compliance and aircraft value. Find out more.

Virtual Speech logo

ELITE Simulation Solutions is a leading global provider of Flight Simulation Training Devices, IFR training software as well as flight controls and related services. Find out more.

Get updates

Never miss an article from AeroInside. Subscribe to our free weekly newsletter and join 5152 existing subscribers.

By subscribing, you accept our terms and conditions and that you've read our privacy policy.

AeroInside Blog
Popular aircraft
Airbus A320
Boeing 737-800
Boeing 737-800 MAX
Popular airlines
American Airlines
United
Delta
Air Canada
Lufthansa
British Airways